Time;durP1;ratioP1;P1;durP2;ratioP2;P2;SDS_P1;SDS_P2;PMS_P1;PMS_P2;Temp;Humidity;BMP_temperature;BMP_pressure;BME280_temperature;BME280_humidity;BME280_pressure;Samples;Min_cycle;Max_cycle;Signal;HPM_P1;HPM_P2
2021/12/22 00:01:24;;;;;;;1.73;1.30;;;;;;;-145.06;0.00;60892.56;4859939;28;20049;-87
2021/12/22 00:04:03;;;;;;;3.77;1.60;;;;;;;-145.06;0.00;60892.56;4857376;28;20521;-87
2021/12/22 00:06:43;;;;;;;2.45;1.27;;;;;;;-145.06;0.00;60892.56;4854662;28;20021;-88
2021/12/22 00:09:22;;;;;;;1.40;1.10;;;;;;;-145.06;0.00;60892.56;4855563;28;20029;-86
2021/12/22 00:12:01;;;;;;;2.60;1.53;;;;;;;-145.06;0.00;60892.56;4857042;28;20109;-86
2021/12/22 00:14:40;;;;;;;2.75;1.60;;;;;;;-145.06;0.00;60892.56;4858285;28;20037;-88
2021/12/22 00:17:20;;;;;;;3.35;1.58;;;;;;;-145.06;0.00;60892.56;4862528;28;20033;-87
2021/12/22 00:19:58;;;;;;;4.32;1.40;;;;;;;-145.06;0.00;60892.56;4855298;28;20041;-87
2021/12/22 00:22:38;;;;;;;1.88;1.23;;;;;;;-145.06;0.00;60892.56;4854116;28;20033;-85
2021/12/22 00:25:17;;;;;;;2.10;1.30;;;;;;;-145.06;0.00;60892.56;4854820;28;20033;-88
2021/12/22 00:27:58;;;;;;;1.40;1.17;;;;;;;-145.06;0.00;60892.56;4853919;28;20037;-87
2021/12/22 00:30:38;;;;;;;1.47;1.17;;;;;;;-145.06;0.00;60892.56;4853828;28;20026;-88
2021/12/22 00:33:19;;;;;;;2.40;1.50;;;;;;;-145.06;0.00;60892.56;4848825;28;20033;-86
2021/12/22 00:35:58;;;;;;;2.42;1.50;;;;;;;-145.06;0.00;60892.56;4859163;28;20029;-86
2021/12/22 00:38:36;;;;;;;2.43;1.73;;;;;;;-145.06;0.00;60892.56;4853007;28;20521;-88
2021/12/22 00:41:15;;;;;;;2.70;1.70;;;;;;;-145.06;0.00;60892.56;4859608;28;20029;-86
2021/12/22 00:43:54;;;;;;;2.17;1.42;;;;;;;-145.06;0.00;60892.56;4856194;28;20033;-88
2021/12/22 00:46:33;;;;;;;2.83;1.42;;;;;;;-145.06;0.00;60892.56;4859370;28;20104;-86
2021/12/22 00:49:12;;;;;;;1.90;1.40;;;;;;;-145.06;0.00;60892.56;4848907;28;20117;-88
2021/12/22 00:51:51;;;;;;;2.22;1.63;;;;;;;-145.06;0.00;60892.56;4854471;28;20269;-87
2021/12/22 00:54:31;;;;;;;2.17;1.23;;;;;;;-145.06;0.00;60892.56;4863333;28;20037;-85
2021/12/22 00:57:11;;;;;;;1.60;1.30;;;;;;;-145.06;0.00;60892.56;4860307;28;20379;-86
2021/12/22 00:59:50;;;;;;;3.10;1.90;;;;;;;-145.06;0.00;60892.56;4859199;28;20045;-86
2021/12/22 01:02:29;;;;;;;3.58;1.77;;;;;;;-145.06;0.00;60892.56;4862191;28;20360;-86
2021/12/22 01:05:09;;;;;;;3.08;1.60;;;;;;;-145.06;0.00;60892.56;4863266;28;20033;-86
2021/12/22 01:07:48;;;;;;;1.77;1.10;;;;;;;-145.06;0.00;60892.56;4863847;28;20025;-87
2021/12/22 01:10:29;;;;;;;1.70;1.40;;;;;;;-145.06;0.00;60892.56;4869141;28;20041;-88
2021/12/22 01:13:09;;;;;;;1.93;1.10;;;;;;;-145.06;0.00;60892.56;4869870;28;20032;-87
2021/12/22 01:15:47;;;;;;;2.93;1.43;;;;;;;-145.06;0.00;60892.56;4858315;28;20061;-87
2021/12/22 01:18:31;;;;;;;2.15;1.70;;;;;;;-145.06;0.00;60892.56;4864944;28;20260;-87
2021/12/22 01:26:57;;;;;;;2.90;1.10;;;;;;;-145.06;0.00;60892.56;4858885;28;20029;-87
2021/12/22 01:29:39;;;;;;;2.67;1.50;;;;;;;-145.06;0.00;60892.56;4857773;28;20029;-88
2021/12/22 01:32:18;;;;;;;3.13;1.10;;;;;;;-145.06;0.00;60892.56;4858328;28;20029;-87
2021/12/22 01:34:57;;;;;;;2.10;1.23;;;;;;;-145.06;0.00;60892.56;4858016;28;20037;-87
2021/12/22 01:37:36;;;;;;;1.97;1.23;;;;;;;-145.06;0.00;60892.56;4858119;28;20069;-86
2021/12/22 01:40:16;;;;;;;1.88;1.15;;;;;;;-145.06;0.00;60892.56;4851689;28;20271;-88
2021/12/22 01:42:57;;;;;;;1.80;1.47;;;;;;;-145.06;0.00;60892.56;4857951;28;20772;-87
2021/12/22 01:49:09;;;;;;;1.95;1.40;;;;;;;-145.06;0.00;60892.56;4861291;28;20037;-87
2021/12/22 01:49:11;;;;;;;1.85;1.40;;;;;;;-145.06;0.00;60892.56;4856788;28;20029;-87
2021/12/22 01:52:02;;;;;;;1.40;1.00;;;;;;;-145.06;0.00;60892.56;4856086;28;20041;-87
2021/12/22 01:54:51;;;;;;;2.23;1.30;;;;;;;-145.06;0.00;60892.56;4864881;28;20040;-87
2021/12/22 01:57:31;;;;;;;1.20;1.10;;;;;;;-145.06;0.00;60892.56;4867572;28;20037;-86
2021/12/22 02:00:11;;;;;;;1.50;0.90;;;;;;;-145.06;0.00;60892.56;4866758;28;20029;-88
2021/12/22 02:02:51;;;;;;;1.52;1.27;;;;;;;-145.06;0.00;60892.56;4857883;28;20795;-87
2021/12/22 02:05:29;;;;;;;;;;;;;;;-145.06;0.00;60892.56;4852952;28;20045;-88
2021/12/22 02:08:08;;;;;;;2.35;1.40;;;;;;;-145.06;0.00;60892.56;4870801;28;20369;-87
2021/12/22 02:10:48;;;;;;;1.10;0.90;;;;;;;-145.06;0.00;60892.56;4861633;28;20045;-87
2021/12/22 02:13:32;;;;;;;;;;;;;;;-145.06;0.00;60892.56;4864444;28;20060;-88
2021/12/22 02:16:14;;;;;;;1.33;0.90;;;;;;;-145.06;0.00;60892.56;4877139;28;19956;-87
2021/12/22 02:18:54;;;;;;;3.10;1.03;;;;;;;-145.06;0.00;60892.56;4866271;28;20036;-87
2021/12/22 02:21:41;;;;;;;2.27;1.30;;;;;;;-145.06;0.00;60892.56;4880950;28;20017;-86
2021/12/22 02:24:20;;;;;;;1.03;0.77;;;;;;;-145.06;0.00;60892.56;4880567;28;20475;-88
2021/12/22 02:27:05;;;;;;;1.67;1.07;;;;;;;-145.06;0.00;60892.56;4859095;28;20037;-88
2021/12/22 02:29:47;;;;;;;1.50;0.98;;;;;;;-145.06;0.00;60892.56;4862138;28;20033;-86
2021/12/22 02:36:05;;;;;;;1.20;0.98;;;;;;;-145.06;0.00;60892.56;4850350;28;20104;-87
2021/12/22 02:38:25;;;;;;;1.63;1.00;;;;;;;-145.06;0.00;60892.56;4849413;28;20034;-88
2021/12/22 02:41:08;;;;;;;2.75;1.48;;;;;;;-145.06;0.00;60892.56;4857883;28;20041;-87
2021/12/22 02:43:50;;;;;;;2.77;1.23;;;;;;;-145.06;0.00;60892.56;4852152;28;20044;-87
2021/12/22 02:46:33;;;;;;;1.48;1.13;;;;;;;-145.06;0.00;60892.56;4856665;28;20424;-87
2021/12/22 02:49:12;;;;;;;2.53;1.50;;;;;;;-145.06;0.00;60892.56;4856024;28;20041;-86
2021/12/22 02:51:51;;;;;;;2.38;1.67;;;;;;;-145.06;0.00;60892.56;4859876;28;20037;-88
2021/12/22 02:54:32;;;;;;;2.87;1.80;;;;;;;-145.06;0.00;60892.56;4856316;28;20034;-87
2021/12/22 03:03:01;;;;;;;1.27;1.03;;;;;;;-145.06;0.00;60892.56;4867920;28;20032;-88
2021/12/22 03:05:41;;;;;;;2.70;1.30;;;;;;;-145.06;0.00;60892.56;4855594;28;20033;-88
2021/12/22 03:08:20;;;;;;;1.98;1.17;;;;;;;-145.06;0.00;60892.56;4861659;28;20033;-87
2021/12/22 03:10:58;;;;;;;2.47;1.30;;;;;;;-145.06;0.00;60892.56;4858692;28;20462;-88
2021/12/22 03:13:37;;;;;;;1.90;1.40;;;;;;;-145.06;0.00;60892.56;4859822;28;20264;-86
2021/12/22 03:16:18;;;;;;;1.38;1.20;;;;;;;-145.06;0.00;60892.56;4854928;28;20037;-88
2021/12/22 03:18:57;;;;;;;1.85;1.20;;;;;;;-145.06;0.00;60892.56;4856068;28;20029;-87
2021/12/22 03:21:41;;;;;;;1.60;1.27;;;;;;;-145.06;0.00;60892.56;4857747;28;20530;-87
2021/12/22 03:24:22;;;;;;;1.60;1.00;;;;;;;-145.06;0.00;60892.56;4867811;28;22045;-86
2021/12/22 03:27:03;;;;;;;2.07;1.20;;;;;;;-145.06;0.00;60892.56;4856172;28;20483;-90
2021/12/22 03:29:42;;;;;;;1.63;0.90;;;;;;;-145.06;0.00;60892.56;4865358;28;20024;-88
2021/12/22 03:32:21;;;;;;;2.42;1.35;;;;;;;-145.06;0.00;60892.56;4871050;28;20037;-87
2021/12/22 03:35:00;;;;;;;2.35;1.45;;;;;;;-145.06;0.00;60892.56;4856640;28;20072;-87
2021/12/22 03:37:39;;;;;;;1.60;1.30;;;;;;;-145.06;0.00;60892.56;4865826;28;20029;-87
2021/12/22 03:40:20;;;;;;;2.78;1.38;;;;;;;-145.06;0.00;60892.56;4864790;28;20030;-88
2021/12/22 03:42:59;;;;;;;1.60;1.10;;;;;;;-145.06;0.00;60892.56;4862401;28;20037;-87
2021/12/22 03:45:39;;;;;;;1.52;1.10;;;;;;;-145.06;0.00;60892.56;4864095;28;20036;-87
2021/12/22 03:48:18;;;;;;;1.50;1.10;;;;;;;-145.06;0.00;60892.56;4858140;28;20088;-88
2021/12/22 03:50:58;;;;;;;;;;;;;;;-145.06;0.00;60892.56;4855857;28;20057;-89
2021/12/22 03:53:36;;;;;;;3.57;1.20;;;;;;;-145.06;0.00;60892.56;4858879;28;19952;-88
2021/12/22 03:56:15;;;;;;;1.60;1.20;;;;;;;-145.06;0.00;60892.56;4856412;28;20038;-88
2021/12/22 03:58:54;;;;;;;1.10;1.00;;;;;;;-145.06;0.00;60892.56;4854889;28;20026;-88
2021/12/22 04:01:33;;;;;;;1.52;1.02;;;;;;;-145.06;0.00;60892.56;4868324;28;20033;-87
2021/12/22 04:04:15;;;;;;;1.35;1.00;;;;;;;-145.06;0.00;60892.56;4854524;28;20033;-87
2021/12/22 04:06:55;;;;;;;3.03;1.05;;;;;;;-145.06;0.00;60892.56;4858611;28;20037;-86
2021/12/22 04:09:33;;;;;;;1.88;1.10;;;;;;;-145.06;0.00;60892.56;4871442;28;20359;-87
2021/12/22 04:12:13;;;;;;;2.97;1.00;;;;;;;-145.06;0.00;60892.56;4864217;28;20029;-89
2021/12/22 04:14:51;;;;;;;1.50;1.10;;;;;;;-145.06;0.00;60892.56;4859509;28;20372;-88
2021/12/22 04:17:30;;;;;;;1.25;1.13;;;;;;;-145.06;0.00;60892.56;4859411;28;20037;-88
2021/12/22 04:20:10;;;;;;;2.78;1.30;;;;;;;-145.06;0.00;60892.56;4861655;28;20041;-87
2021/12/22 04:22:50;;;;;;;1.60;1.20;;;;;;;-145.06;0.00;60892.56;4862961;28;20041;-87
2021/12/22 04:25:30;;;;;;;1.33;1.10;;;;;;;-145.06;0.00;60892.56;4855505;28;20033;-86
2021/12/22 04:28:10;;;;;;;1.88;1.30;;;;;;;-145.06;0.00;60892.56;4859107;28;20280;-88
2021/12/22 04:30:50;;;;;;;1.40;1.30;;;;;;;-145.06;0.00;60892.56;4870115;28;20491;-87
2021/12/22 04:33:29;;;;;;;1.87;1.20;;;;;;;-145.06;0.00;60892.56;4859980;28;20056;-87
2021/12/22 04:36:08;;;;;;;1.87;1.27;;;;;;;-145.06;0.00;60892.56;4865307;28;20029;-87
2021/12/22 04:38:47;;;;;;;1.30;1.17;;;;;;;-145.06;0.00;60892.56;4861663;28;20296;-87
2021/12/22 04:41:27;;;;;;;1.30;1.20;;;;;;;-145.06;0.00;60892.56;4860273;28;20355;-87
2021/12/22 04:44:06;;;;;;;1.70;1.40;;;;;;;-145.06;0.00;60892.56;4859238;28;20033;-86
2021/12/22 04:46:44;;;;;;;1.80;1.33;;;;;;;-145.06;0.00;60892.56;4859253;28;20033;-87
2021/12/22 04:49:23;;;;;;;2.10;1.57;;;;;;;-145.06;0.00;60892.56;4863799;28;21150;-87
2021/12/22 04:52:07;;;;;;;3.22;2.08;;;;;;;-145.06;0.00;60892.56;4859383;28;20037;-86
2021/12/22 04:57:29;;;;;;;5.78;3.42;;;;;;;-145.06;0.00;60892.56;4857869;28;20490;-87
2021/12/22 05:00:10;;;;;;;6.60;3.95;;;;;;;-145.06;0.00;60892.56;4864767;28;20025;-86
2021/12/22 05:02:49;;;;;;;7.13;4.33;;;;;;;-145.06;0.00;60892.56;4858406;28;20037;-87
2021/12/22 05:05:29;;;;;;;8.40;4.90;;;;;;;-145.06;0.00;60892.56;4861160;28;20037;-88
2021/12/22 05:08:08;;;;;;;;;;;;;;;-145.06;0.00;60892.56;4856217;28;20037;-86
2021/12/22 05:10:47;;;;;;;6.00;3.15;;;;;;;-145.06;0.00;60892.56;4856157;28;19917;-87
2021/12/22 05:13:26;;;;;;;4.13;2.70;;;;;;;-145.06;0.00;60892.56;4817203;28;20042;-85
2021/12/22 05:16:06;;;;;;;3.70;2.22;;;;;;;-145.06;0.00;60892.56;4817021;28;20027;-87
2021/12/22 05:18:52;;;;;;;4.22;2.30;;;;;;;-145.06;0.00;60892.56;4821078;28;20025;-86
2021/12/22 05:21:31;;;;;;;3.80;2.50;;;;;;;-145.06;0.00;60892.56;4817120;28;20492;-88
2021/12/22 05:24:10;;;;;;;3.17;1.95;;;;;;;-145.06;0.00;60892.56;4813718;28;20037;-87
2021/12/22 05:26:50;;;;;;;3.40;2.17;;;;;;;-145.06;0.00;60892.56;4817433;28;20031;-87
2021/12/22 05:29:29;;;;;;;3.13;2.00;;;;;;;-145.06;0.00;60892.56;4830332;28;20026;-87
2021/12/22 05:32:07;;;;;;;3.65;2.00;;;;;;;-145.06;0.00;60892.56;4842307;28;20090;-88
2021/12/22 05:34:47;;;;;;;3.55;2.22;;;;;;;-1.01;0.00;60892.56;4825469;28;20074;-86
2021/12/22 05:37:26;;;;;;;3.40;2.20;;;;;;;-145.06;0.00;60892.56;4821372;28;20030;-87
2021/12/22 05:40:07;;;;;;;2.80;1.95;;;;;;;-1.04;0.00;60892.56;4816258;28;20535;-88
2021/12/22 05:42:47;;;;;;;2.13;1.47;;;;;;;-145.06;0.00;60892.56;4818572;28;20093;-86
2021/12/22 05:45:27;;;;;;;3.67;1.80;;;;;;;-145.06;0.00;60892.56;4819217;28;20030;-86
2021/12/22 05:48:07;;;;;;;2.60;1.37;;;;;;;-145.06;0.00;60892.56;4817052;28;20149;-87
2021/12/22 05:50:50;;;;;;;2.10;1.10;;;;;;;-145.06;0.00;60892.56;4817766;28;20098;-88
2021/12/22 05:53:30;;;;;;;1.90;1.30;;;;;;;-145.06;0.00;60892.56;4813556;28;20042;-86
2021/12/22 05:56:12;;;;;;;2.80;1.70;;;;;;;-145.06;0.00;60892.56;4818279;28;20034;-86
2021/12/22 05:58:51;;;;;;;2.20;1.40;;;;;;;-145.06;0.00;60892.56;4818791;28;20041;-87
2021/12/22 06:01:30;;;;;;;1.95;1.50;;;;;;;-145.06;0.00;60892.56;4815756;28;20031;-86
2021/12/22 06:04:09;;;;;;;1.93;1.50;;;;;;;-145.06;0.00;60892.56;4819763;28;20031;-87
2021/12/22 06:06:48;;;;;;;2.75;1.50;;;;;;;-1.14;0.00;60892.56;4813261;28;20030;-87
2021/12/22 06:09:28;;;;;;;2.95;1.50;;;;;;;-145.06;0.00;60892.56;4820172;28;20489;-86
2021/12/22 06:12:07;;;;;;;2.22;1.50;;;;;;;-1.21;0.00;60892.56;4813746;28;20042;-87
2021/12/22 06:14:46;;;;;;;2.28;1.27;;;;;;;-1.24;0.00;60892.56;4815219;28;20141;-87
2021/12/22 06:21:01;;;;;;;2.20;1.50;;;;;;;-145.06;0.00;60892.56;4793676;28;20038;-87
2021/12/22 06:23:40;;;;;;;2.93;1.20;;;;;;;-1.17;0.00;60892.56;4814096;28;20499;-87
2021/12/22 06:26:19;;;;;;;1.73;1.35;;;;;;;-145.06;0.00;60892.56;4819175;28;20500;-88
2021/12/22 06:28:58;;;;;;;2.30;1.38;;;;;;;-145.06;0.00;60892.56;4818897;28;20030;-86
2021/12/22 06:31:37;;;;;;;2.10;1.53;;;;;;;-145.06;0.00;60892.56;4815758;28;20030;-88
2021/12/22 06:34:15;;;;;;;2.88;1.73;;;;;;;-145.06;0.00;60892.56;4813993;28;20286;-86
2021/12/22 06:36:54;;;;;;;2.10;1.40;;;;;;;-145.06;0.00;60892.56;4814688;28;20066;-86
2021/12/22 06:39:34;;;;;;;2.40;1.42;;;;;;;-145.06;0.00;60892.56;4809327;28;20269;-88
2021/12/22 06:42:13;;;;;;;2.60;1.60;;;;;;;-1.17;0.00;60892.56;4812869;28;20132;-86
2021/12/22 06:44:52;;;;;;;2.42;1.63;;;;;;;-145.06;0.00;60892.56;4811486;28;20495;-86
2021/12/22 06:47:31;;;;;;;2.90;2.00;;;;;;;-145.06;0.00;60892.56;4809481;28;20038;-87
2021/12/22 06:50:11;;;;;;;4.70;2.60;;;;;;;-145.06;0.00;60892.56;4802391;28;20034;-87
2021/12/22 06:52:50;;;;;;;3.45;2.38;;;;;;;-145.06;0.00;60892.56;4809909;28;20588;-87
2021/12/22 06:55:29;;;;;;;3.95;2.40;;;;;;;-145.06;0.00;60892.56;4807829;28;20065;-87
2021/12/22 06:58:08;;;;;;;3.90;2.55;;;;;;;-145.06;0.00;60892.56;4807250;28;20117;-88
2021/12/22 07:00:47;;;;;;;4.55;2.60;;;;;;;-145.06;0.00;60892.56;4808373;28;20037;-87
2021/12/22 07:03:26;;;;;;;6.70;3.00;;;;;;;-145.06;0.00;60892.56;4812299;28;20038;-87
2021/12/22 07:06:05;;;;;;;;;;;;;;;-145.06;0.00;60892.56;4810106;28;20030;-88
2021/12/22 07:08:44;;;;;;;6.72;3.45;;;;;;;-145.06;0.00;60892.56;4826498;28;20001;-87
2021/12/22 07:11:24;;;;;;;6.10;3.55;;;;;;;-145.06;0.00;60892.56;4808554;28;20034;-87
2021/12/22 07:14:04;;;;;;;7.55;3.50;;;;;;;-145.06;0.00;60892.56;4813741;28;21227;-86
2021/12/22 07:16:44;;;;;;;7.30;3.67;;;;;;;187.52;0.00;60892.56;4809095;28;20113;-87
2021/12/22 07:19:23;;;;;;;8.27;4.10;;;;;;;21.08;0.00;60892.56;4823054;28;20030;-88
2021/12/22 07:22:02;;;;;;;8.67;4.23;;;;;;;-145.06;0.00;60892.56;4810415;28;20138;-87
2021/12/22 07:24:41;;;;;;;10.93;4.68;;;;;;;-145.06;0.00;60892.56;4813893;28;20258;-86
2021/12/22 07:27:20;;;;;;;8.87;4.67;;;;;;;-1.17;0.00;60892.56;4818640;28;20034;-88
2021/12/22 07:29:59;;;;;;;10.27;5.13;;;;;;;-145.06;0.00;60892.56;4817372;28;20046;-87
2021/12/22 07:32:38;;;;;;;9.57;4.82;;;;;;;-1.24;0.00;60892.56;4818774;28;20042;-88
2021/12/22 07:35:46;;;;;;;9.60;4.50;;;;;;;-145.06;0.00;60892.56;4806180;28;20043;-86
2021/12/22 07:38:27;;;;;;;8.33;4.73;;;;;;;-145.06;0.00;60892.56;4810665;28;20309;-87
2021/12/22 07:41:08;;;;;;;9.47;5.27;;;;;;;-145.06;0.00;60892.56;4818036;28;20030;-87
2021/12/22 07:43:47;;;;;;;9.87;4.87;;;;;;;-145.06;0.00;60892.56;4815929;28;20038;-88
2021/12/22 07:46:26;;;;;;;10.73;5.60;;;;;;;-145.06;0.00;60892.56;4815498;28;20361;-87
2021/12/22 07:49:04;;;;;;;11.30;5.07;;;;;;;-145.06;0.00;60892.56;4818387;28;20262;-88
2021/12/22 07:51:43;;;;;;;7.30;4.18;;;;;;;-145.06;0.00;60892.56;4813820;28;20449;-87
2021/12/22 07:54:22;;;;;;;7.57;3.70;;;;;;;-145.06;0.00;60892.56;4817859;28;20038;-87
2021/12/22 07:57:01;;;;;;;6.68;3.20;;;;;;;-145.06;0.00;60892.56;4819106;28;20377;-87
2021/12/22 07:59:40;;;;;;;6.03;3.33;;;;;;;-145.06;0.00;60892.56;4817414;28;20061;-89
2021/12/22 08:02:19;;;;;;;5.40;2.97;;;;;;;-145.06;0.00;60892.56;4800708;28;20042;-87
2021/12/22 08:04:58;;;;;;;4.13;2.85;;;;;;;-145.06;0.00;60892.56;4809976;28;20113;-87
2021/12/22 08:07:37;;;;;;;4.32;2.70;;;;;;;-145.06;0.00;60892.56;4817418;28;20022;-88
2021/12/22 08:10:17;;;;;;;4.37;2.30;;;;;;;-145.06;0.00;60892.56;4812798;28;20042;-89
2021/12/22 08:12:56;;;;;;;4.05;2.70;;;;;;;-145.06;0.00;60892.56;4809134;28;20277;-89
2021/12/22 08:15:35;;;;;;;4.80;2.33;;;;;;;-145.06;0.00;60892.56;4817376;28;20038;-87
2021/12/22 08:18:14;;;;;;;3.30;2.03;;;;;;;-145.06;0.00;60892.56;4811003;28;20034;-89
2021/12/22 08:20:53;;;;;;;3.27;2.17;;;;;;;-145.06;0.00;60892.56;4817442;28;20109;-88
2021/12/22 08:23:32;;;;;;;2.97;1.77;;;;;;;-1.01;0.00;60892.56;4816591;28;20344;-87
2021/12/22 08:26:11;;;;;;;3.13;2.10;;;;;;;0.29;0.00;60892.56;4816327;28;20031;-86
2021/12/22 08:28:51;;;;;;;3.70;2.05;;;;;;;-1.01;0.00;60892.56;4818684;28;20030;-87
2021/12/22 08:31:29;;;;;;;;;;;;;;;-145.06;0.00;60892.56;4818781;28;20046;-86
2021/12/22 08:34:10;;;;;;;2.80;1.90;;;;;;;-145.06;0.00;60892.56;4803844;28;20348;-88
2021/12/22 08:39:49;;;;;;;5.05;3.00;;;;;;;-145.06;0.00;60892.56;4831665;28;20019;-88
2021/12/22 08:42:28;;;;;;;5.05;3.00;;;;;;;-145.06;0.00;60892.56;4820290;28;20046;-88
2021/12/22 08:45:07;;;;;;;3.97;2.67;;;;;;;-145.06;0.00;60892.56;4818200;28;20030;-87
2021/12/22 08:47:47;;;;;;;4.60;2.50;;;;;;;-145.06;0.00;60892.56;4817326;28;20034;-87
2021/12/22 08:50:27;;;;;;;3.92;2.47;;;;;;;-145.06;0.00;60892.56;4818632;28;20030;-88
2021/12/22 08:53:06;;;;;;;;;;;;;;;-145.06;0.00;60892.56;4822038;28;20610;-86
2021/12/22 08:55:45;;;;;;;3.47;2.40;;;;;;;-145.06;0.00;60892.56;4816976;28;19910;-88
2021/12/22 08:58:24;;;;;;;3.22;2.47;;;;;;;-145.06;0.00;60892.56;4803174;28;20713;-88
2021/12/22 09:01:04;;;;;;;4.68;2.40;;;;;;;-145.06;0.00;60892.56;4810258;28;20030;-87
2021/12/22 09:03:43;;;;;;;2.70;2.20;;;;;;;-145.06;0.00;60892.56;4821035;28;20034;-87
2021/12/22 09:06:22;;;;;;;3.35;2.15;;;;;;;-145.06;0.00;60892.56;4801971;28;20121;-87
2021/12/22 09:09:01;;;;;;;2.37;2.13;;;;;;;-145.06;0.00;60892.56;4811271;28;20034;-87
2021/12/22 09:11:41;;;;;;;4.23;2.50;;;;;;;-145.06;0.00;60892.56;4820494;28;20113;-88
2021/12/22 09:14:21;;;;;;;3.42;2.40;;;;;;;-145.06;0.00;60892.56;4820392;28;20034;-88
2021/12/22 09:17:00;;;;;;;4.70;2.70;;;;;;;-145.06;0.00;60892.56;4819847;28;20038;-88
2021/12/22 09:19:39;;;;;;;4.03;2.80;;;;;;;-145.06;0.00;60892.56;4807824;28;20034;-88
2021/12/22 09:22:18;;;;;;;3.85;2.40;;;;;;;-145.06;0.00;60892.56;4815192;28;20034;-88
2021/12/22 09:24:57;;;;;;;2.60;2.30;;;;;;;-145.06;0.00;60892.56;4821694;28;20472;-89
2021/12/22 09:27:36;;;;;;;2.55;2.03;;;;;;;-145.06;0.00;60892.56;4819713;28;20027;-88
2021/12/22 09:30:15;;;;;;;2.40;2.00;;;;;;;-145.06;0.00;60892.56;4819940;28;20484;-89
2021/12/22 09:32:54;;;;;;;4.78;2.50;;;;;;;-145.06;0.00;60892.56;4821652;28;20034;-88
2021/12/22 09:35:33;;;;;;;3.83;2.58;;;;;;;-145.06;0.00;60892.56;4806828;28;20042;-87
2021/12/22 09:38:13;;;;;;;3.78;2.83;;;;;;;-145.06;0.00;60892.56;4820180;28;20046;-86
2021/12/22 09:40:52;;;;;;;4.35;3.17;;;;;;;-145.06;0.00;60892.56;4819900;28;20062;-88
2021/12/22 09:43:32;;;;;;;3.67;2.43;;;;;;;-145.06;0.00;60892.56;4819817;28;20034;-88
2021/12/22 09:46:14;;;;;;;3.15;2.20;;;;;;;-145.06;0.00;60892.56;4819563;28;20038;-88
2021/12/22 09:49:07;;;;;;;3.47;2.20;;;;;;;-145.06;0.00;60892.56;4805119;28;20038;-88
2021/12/22 09:54:53;;;;;;;2.60;2.10;;;;;;;-145.06;0.00;60892.56;4807865;28;20023;-87
2021/12/22 09:57:34;;;;;;;3.42;2.15;;;;;;;-145.06;0.00;60892.56;4820436;28;20030;-88
2021/12/22 10:00:13;;;;;;;3.38;2.22;;;;;;;-145.06;0.00;60892.56;4820237;28;20074;-89
2021/12/22 10:02:52;;;;;;;3.92;2.50;;;;;;;-145.06;0.00;60892.56;4818312;28;20027;-88
2021/12/22 10:05:35;;;;;;;3.10;2.20;;;;;;;-145.06;0.00;60892.56;4807948;28;20046;-88
2021/12/22 10:08:23;;;;;;;2.42;2.05;;;;;;;-145.06;0.00;60892.56;4818063;28;20054;-88
2021/12/22 10:11:09;;;;;;;3.13;2.42;;;;;;;-145.06;0.00;60892.56;4819010;28;20034;-88
2021/12/22 10:13:48;;;;;;;4.00;2.50;;;;;;;-145.06;0.00;60892.56;4812929;28;20026;-87
2021/12/22 10:16:28;;;;;;;2.97;2.28;;;;;;;-145.06;0.00;60892.56;4819703;28;20385;-88
2021/12/22 10:19:10;;;;;;;4.82;2.80;;;;;;;-145.06;0.00;60892.56;4818667;28;20677;-88
2021/12/22 10:21:59;;;;;;;3.45;2.33;;;;;;;-145.06;0.00;60892.56;4810838;28;20022;-88
2021/12/22 10:24:39;;;;;;;3.92;2.40;;;;;;;-145.06;0.00;60892.56;4817965;28;20026;-87
2021/12/22 10:27:20;;;;;;;3.00;2.20;;;;;;;-145.06;0.00;60892.56;4826805;28;20026;-88
2021/12/22 10:29:59;;;;;;;3.40;2.47;;;;;;;-145.06;0.00;60892.56;4816882;28;20038;-89
2021/12/22 10:32:38;;;;;;;4.70;2.70;;;;;;;-145.06;0.00;60892.56;4807821;28;20062;-87
2021/12/22 10:35:17;;;;;;;4.40;2.97;;;;;;;-145.06;0.00;60892.56;4819433;28;20476;-87
2021/12/22 10:37:58;;;;;;;4.00;2.40;;;;;;;-145.06;0.00;60892.56;4815105;28;20285;-88
2021/12/22 10:40:40;;;;;;;3.20;2.17;;;;;;;-145.06;0.00;60892.56;4817923;28;20507;-88
2021/12/22 10:43:31;;;;;;;4.13;2.55;;;;;;;-145.06;0.00;60892.56;4818511;28;20058;-88
2021/12/22 10:46:15;;;;;;;3.97;2.25;;;;;;;-145.06;0.00;60892.56;4810064;28;20026;-87
2021/12/22 10:49:17;;;;;;;4.00;2.10;;;;;;;-145.06;0.00;60892.56;4804306;28;20034;-89
2021/12/22 10:52:02;;;;;;;4.10;2.30;;;;;;;-145.06;0.00;60892.56;4828307;28;20035;-88
2021/12/22 10:54:41;;;;;;;3.63;2.25;;;;;;;-145.06;0.00;60892.56;4814511;28;20026;-87
2021/12/22 10:57:21;;;;;;;3.10;2.30;;;;;;;-145.06;0.00;60892.56;4819030;28;20034;-87
2021/12/22 11:00:00;;;;;;;4.32;2.55;;;;;;;-145.06;0.00;60892.56;4813704;28;20109;-88
2021/12/22 11:02:44;;;;;;;3.08;2.35;;;;;;;-145.06;0.00;60892.56;4806642;28;20029;-88
2021/12/22 11:05:28;;;;;;;3.50;2.33;;;;;;;-145.06;0.00;60892.56;4818078;28;20034;-88
2021/12/22 11:08:23;;;;;;;3.95;2.22;;;;;;;-145.06;0.00;60892.56;4811082;28;20639;-88
2021/12/22 11:11:14;;;;;;;3.75;2.00;;;;;;;-145.06;0.00;60892.56;4812338;28;20030;-86
2021/12/22 11:14:10;;;;;;;4.20;2.60;;;;;;;-145.06;0.00;60892.56;4816825;28;20041;-87
2021/12/22 11:16:53;;;;;;;3.60;2.50;;;;;;;-145.06;0.00;60892.56;4813830;28;20030;-89
2021/12/22 11:19:47;;;;;;;3.33;2.08;;;;;;;-145.06;0.00;60892.56;4835498;28;20034;-87
2021/12/22 11:25:31;;;;;;;3.10;2.00;;;;;;;-145.06;0.00;60892.56;4817879;28;20503;-88
2021/12/22 11:28:10;;;;;;;3.33;2.38;;;;;;;2.89;0.00;60892.56;4817730;28;20807;-87
2021/12/22 11:30:49;;;;;;;4.45;2.38;;;;;;;-145.06;0.00;60892.56;4818070;28;20493;-88
2021/12/22 11:33:30;;;;;;;3.20;2.00;;;;;;;-145.06;0.00;60892.56;4818328;28;20034;-87
2021/12/22 11:36:10;;;;;;;2.63;1.95;;;;;;;-145.06;0.00;60892.56;4816925;28;20546;-87
2021/12/22 11:38:50;;;;;;;2.53;1.88;;;;;;;-145.06;0.00;60892.56;4802737;28;20354;-87
2021/12/22 11:41:31;;;;;;;2.05;1.75;;;;;;;21.08;0.00;60892.56;4809970;28;20026;-88
2021/12/22 11:44:10;;;;;;;3.13;2.30;;;;;;;-145.06;0.00;60892.56;4817339;28;20030;-88
2021/12/22 11:46:52;;;;;;;;;;;;;;;-145.06;0.00;60892.56;4811343;28;20023;-87
2021/12/22 11:49:34;;;;;;;3.55;2.08;;;;;;;-145.06;0.00;60892.56;4822312;28;19913;-87
2021/12/22 11:52:36;;;;;;;4.95;2.60;;;;;;;-145.06;0.00;60892.56;4820295;28;20031;-87
2021/12/22 11:55:17;;;;;;;5.25;2.83;;;;;;;-145.06;0.00;60892.56;4817044;28;20603;-86
2021/12/22 11:58:14;;;;;;;4.32;2.78;;;;;;;-145.06;0.00;60892.56;4825304;28;20065;-87
2021/12/22 12:00:53;;;;;;;4.90;2.70;;;;;;;-145.06;0.00;60892.56;4809856;28;20540;-87
2021/12/22 12:03:36;;;;;;;3.85;2.47;;;;;;;-145.06;0.00;60892.56;4809298;28;20038;-86
2021/12/22 12:06:23;;;;;;;4.63;2.65;;;;;;;-145.06;0.00;60892.56;4810772;28;20034;-87
2021/12/22 12:09:12;;;;;;;5.60;3.17;;;;;;;-145.06;0.00;60892.56;4819668;28;20054;-88
2021/12/22 12:11:55;;;;;;;3.53;2.57;;;;;;;-145.06;0.00;60892.56;4810463;28;20030;-86
2021/12/22 12:14:36;;;;;;;4.38;2.60;;;;;;;-145.06;0.00;60892.56;4811196;28;20270;-88
2021/12/22 12:23:32;;;;;;;4.85;2.88;;;;;;;-145.06;0.00;60892.56;4817195;28;20034;-86
2021/12/22 12:26:35;;;;;;;5.95;3.63;;;;;;;-145.06;0.00;60892.56;4817483;28;20372;-87
2021/12/22 12:29:14;;;;;;;10.85;5.13;;;;;;;-145.06;0.00;60892.56;4820090;28;20034;-86
2021/12/22 12:31:53;;;;;;;11.50;5.80;;;;;;;-145.06;0.00;60892.56;4820298;28;20054;-87
2021/12/22 12:34:32;;;;;;;10.00;5.22;;;;;;;-145.06;0.00;60892.56;4805254;28;20038;-87
2021/12/22 12:37:12;;;;;;;10.13;4.80;;;;;;;-145.06;0.00;60892.56;4818451;28;20031;-87
2021/12/22 12:39:55;;;;;;;9.07;5.40;;;;;;;-145.06;0.00;60892.56;4813854;28;20042;-87
2021/12/22 12:42:55;;;;;;;15.32;7.57;;;;;;;-145.06;0.00;60892.56;4814187;28;20066;-87
2021/12/22 12:45:46;;;;;;;14.02;7.25;;;;;;;-145.06;0.00;60892.56;4816092;28;20034;-87
2021/12/22 12:48:30;;;;;;;17.42;8.02;;;;;;;-145.06;0.00;60892.56;4814767;28;20066;-87
2021/12/22 12:51:14;;;;;;;18.05;8.77;;;;;;;-145.06;0.00;60892.56;4819975;28;20034;-86
2021/12/22 12:53:56;;;;;;;13.57;6.80;;;;;;;-145.06;0.00;60892.56;4813515;28;20042;-87
2021/12/22 12:56:40;;;;;;;12.07;7.05;;;;;;;4.19;0.00;60892.56;4814975;28;20038;-86
2021/12/22 12:59:26;;;;;;;15.98;10.00;;;;;;;-145.06;0.00;60892.56;4820510;28;20117;-87
2021/12/22 13:02:08;;;;;;;15.68;9.73;;;;;;;-145.06;0.00;60892.56;4826486;28;20033;-87
2021/12/22 13:04:47;;;;;;;14.30;8.23;;;;;;;-145.06;0.00;60892.56;4818404;28;20073;-88
2021/12/22 13:07:26;;;;;;;16.75;10.30;;;;;;;10.68;0.00;60892.56;4822135;28;20034;-86